createdAt,value
2023-04-16T00:01:27.773Z,9.30
2023-04-16T00:03:56.138Z,9.30
2023-04-16T00:06:25.635Z,9.30
2023-04-16T00:08:53.699Z,9.30
2023-04-16T00:11:21.964Z,9.30
2023-04-16T00:13:50.107Z,9.30
2023-04-16T00:16:18.217Z,9.20
2023-04-16T00:18:46.514Z,9.20
2023-04-16T00:21:14.585Z,9.20
2023-04-16T00:23:43.977Z,9.30
2023-04-16T00:26:12.039Z,9.20
2023-04-16T00:28:41.624Z,9.30
2023-04-16T00:31:09.719Z,9.20
2023-04-16T00:33:37.745Z,9.20
2023-04-16T00:36:06.896Z,9.20
2023-04-16T00:38:35.013Z,9.20
2023-04-16T00:41:04.430Z,9.20
2023-04-16T00:43:32.475Z,9.20
2023-04-16T00:46:00.644Z,9.10
2023-04-16T00:48:28.896Z,9.10
2023-04-16T00:50:58.414Z,9.10
2023-04-16T00:53:27.685Z,9.10
2023-04-16T00:55:57.869Z,9.10
2023-04-16T00:58:28.378Z,9.10
2023-04-16T01:00:56.797Z,9.10
2023-04-16T01:03:25.380Z,9.10
2023-04-16T01:05:53.721Z,9.10
2023-04-16T01:08:22.958Z,9.10
2023-04-16T01:10:51.018Z,9.10
2023-04-16T01:13:19.059Z,9.10
2023-04-16T01:15:48.582Z,9.10
2023-04-16T01:18:17.274Z,9.10
2023-04-16T01:20:47.103Z,9.10
2023-04-16T01:23:15.481Z,9.10
2023-04-16T01:25:43.557Z,9.10
2023-04-16T01:28:11.837Z,9.10
2023-04-16T01:30:43.050Z,9.10
2023-04-16T01:33:12.229Z,9.10
2023-04-16T01:35:42.806Z,9.10
2023-04-16T01:38:13.241Z,9.10
2023-04-16T01:40:47.428Z,9.10
2023-04-16T01:43:15.686Z,9.10
2023-04-16T01:45:43.954Z,9.10
2023-04-16T01:48:12.048Z,9.10
2023-04-16T01:50:40.136Z,9.10
2023-04-16T01:53:09.635Z,9.10
2023-04-16T01:55:39.037Z,9.10
2023-04-16T01:58:10.947Z,9.10
2023-04-16T02:00:39.788Z,9.10
2023-04-16T02:03:07.983Z,9.00
2023-04-16T02:05:36.223Z,9.00
2023-04-16T02:08:04.272Z,9.00
2023-04-16T02:10:32.344Z,9.00
2023-04-16T02:13:01.829Z,9.00
2023-04-16T02:15:29.928Z,8.90
2023-04-16T02:17:58.066Z,8.90
2023-04-16T02:20:26.223Z,8.90
2023-04-16T02:22:54.232Z,8.90
2023-04-16T02:25:23.080Z,8.90
2023-04-16T02:27:51.204Z,8.90
2023-04-16T02:30:20.948Z,8.90
2023-04-16T02:32:49.751Z,8.90
2023-04-16T02:35:17.839Z,8.90
2023-04-16T02:37:46.142Z,8.90
2023-04-16T02:40:14.096Z,8.90
2023-04-16T02:42:42.246Z,8.90
2023-04-16T02:45:11.700Z,8.90
2023-04-16T02:47:41.191Z,8.90
2023-04-16T02:50:09.944Z,8.80
2023-04-16T02:52:37.941Z,8.90
2023-04-16T02:55:06.719Z,8.90
2023-04-16T02:57:34.902Z,8.90
2023-04-16T03:00:04.533Z,8.90
2023-04-16T03:02:32.832Z,8.80
2023-04-16T03:05:02.376Z,8.90
2023-04-16T03:07:30.349Z,8.90
2023-04-16T03:09:58.469Z,8.80
2023-04-16T03:12:26.672Z,8.80
2023-04-16T03:14:54.763Z,8.80
2023-04-16T03:17:22.923Z,8.80
2023-04-16T03:19:51.777Z,8.80
2023-04-16T03:22:21.289Z,8.80
2023-04-16T03:24:49.262Z,8.80
2023-04-16T03:27:17.275Z,8.80
2023-04-16T03:29:45.261Z,8.80
2023-04-16T03:32:13.589Z,8.80
2023-04-16T03:34:41.591Z,8.80
2023-04-16T03:37:11.992Z,8.80
2023-04-16T03:39:41.552Z,8.80
2023-04-16T03:42:09.490Z,8.80
2023-04-16T03:44:37.586Z,8.80
2023-04-16T03:47:08.115Z,8.80
2023-04-16T03:49:36.148Z,8.70
2023-04-16T03:52:04.252Z,8.70
2023-04-16T03:54:32.218Z,8.70
2023-04-16T03:57:01.538Z,8.70
2023-04-16T03:59:29.503Z,8.70
2023-04-16T04:01:57.655Z,8.70
2023-04-16T04:04:25.795Z,8.70
2023-04-16T04:06:53.870Z,8.60
2023-04-16T04:09:21.838Z,8.60
2023-04-16T04:11:51.290Z,8.60
2023-04-16T04:14:20.651Z,8.60
2023-04-16T04:16:48.636Z,8.60
2023-04-16T04:19:16.651Z,8.60
2023-04-16T04:21:44.666Z,8.50
2023-04-16T04:24:12.715Z,8.50
2023-04-16T04:26:40.873Z,8.50
2023-04-16T04:29:09.083Z,8.50
2023-04-16T04:31:38.667Z,8.50
2023-04-16T04:34:06.750Z,8.50
2023-04-16T04:36:34.841Z,8.50
2023-04-16T04:39:02.865Z,8.40
2023-04-16T04:41:31.107Z,8.40
2023-04-16T04:43:59.097Z,8.40
2023-04-16T04:46:27.125Z,8.40
2023-04-16T04:48:56.499Z,8.40
2023-04-16T04:51:24.536Z,8.40
2023-04-16T04:53:52.927Z,8.40
2023-04-16T04:56:20.911Z,8.30
2023-04-16T04:58:50.662Z,8.30
2023-04-16T05:01:18.728Z,8.30
2023-04-16T05:03:46.952Z,8.30
2023-04-16T05:06:16.526Z,8.30
2023-04-16T05:08:44.599Z,8.30
2023-04-16T05:11:12.583Z,8.30
2023-04-16T05:13:40.834Z,8.30
2023-04-16T05:16:09.391Z,8.30
2023-04-16T05:18:37.559Z,8.30
2023-04-16T05:21:06.263Z,8.20
2023-04-16T05:23:35.737Z,8.20
2023-04-16T05:26:03.772Z,8.30
2023-04-16T05:28:32.031Z,8.20
2023-04-16T05:31:00.054Z,8.20
2023-04-16T05:33:28.137Z,8.20
2023-04-16T05:35:56.183Z,8.20
2023-04-16T05:38:24.150Z,8.20
2023-04-16T05:40:53.504Z,8.20
2023-04-16T05:43:21.596Z,8.20
2023-04-16T05:45:49.554Z,8.20
2023-04-16T05:48:17.546Z,8.20
2023-04-16T05:50:45.533Z,8.20
2023-04-16T05:53:14.339Z,8.20
2023-04-16T05:55:42.364Z,8.20
2023-04-16T05:58:11.767Z,8.20
2023-04-16T06:00:40.192Z,8.20
2023-04-16T06:03:08.465Z,8.20
2023-04-16T06:05:36.602Z,8.20
2023-04-16T06:08:04.693Z,8.20
2023-04-16T06:10:32.861Z,8.20
2023-04-16T06:13:00.963Z,8.20
2023-04-16T06:15:30.700Z,8.20
2023-04-16T06:18:00.764Z,8.20
2023-04-16T06:20:29.227Z,8.30
2023-04-16T06:22:57.688Z,8.30
2023-04-16T06:25:25.717Z,8.30
2023-04-16T06:27:53.822Z,8.30
2023-04-16T06:30:22.119Z,8.40
2023-04-16T06:32:51.578Z,8.40
2023-04-16T06:35:20.639Z,8.40
2023-04-16T06:37:48.910Z,8.50
2023-04-16T06:40:17.136Z,8.50
2023-04-16T06:42:45.643Z,8.60
2023-04-16T06:45:14.857Z,8.60
2023-04-16T06:47:43.019Z,8.70
2023-04-16T06:50:12.829Z,8.70
2023-04-16T06:52:40.915Z,8.70
2023-04-16T06:55:09.844Z,8.80
2023-04-16T06:57:37.924Z,8.80
2023-04-16T07:00:07.010Z,8.80
2023-04-16T07:02:35.319Z,8.90
2023-04-16T07:05:03.587Z,8.90
2023-04-16T07:07:33.225Z,8.90
2023-04-16T07:10:01.203Z,9.00
2023-04-16T07:12:29.309Z,9.00
2023-04-16T07:14:57.361Z,9.10
2023-04-16T07:17:25.397Z,9.10
2023-04-16T07:19:53.672Z,9.10
2023-04-16T07:22:22.502Z,9.10
2023-04-16T07:24:51.833Z,9.20
2023-04-16T07:27:19.879Z,9.20
2023-04-16T07:29:47.883Z,9.10
2023-04-16T07:32:16.039Z,9.20
2023-04-16T07:34:44.209Z,9.20
2023-04-16T07:37:12.164Z,9.20
2023-04-16T07:39:40.273Z,9.20
2023-04-16T07:42:09.629Z,9.20
2023-04-16T07:44:37.597Z,9.20
2023-04-16T07:47:05.881Z,9.30
2023-04-16T07:49:34.008Z,9.30
2023-04-16T07:52:03.490Z,9.30
2023-04-16T07:54:31.501Z,9.40
2023-04-16T07:56:59.456Z,9.50
2023-04-16T07:59:29.199Z,9.60
2023-04-16T08:01:57.768Z,9.80
2023-04-16T08:04:26.583Z,9.90
2023-04-16T08:06:55.154Z,10.00
2023-04-16T08:09:24.331Z,10.00
2023-04-16T08:11:52.452Z,10.10
2023-04-16T08:14:20.565Z,10.10
2023-04-16T08:16:50.399Z,10.10
2023-04-16T08:19:18.554Z,10.10
2023-04-16T08:21:46.656Z,10.10
2023-04-16T08:24:14.653Z,10.10
2023-04-16T08:26:42.612Z,10.10
2023-04-16T08:29:10.875Z,10.20
2023-04-16T08:31:39.388Z,10.20
2023-04-16T08:34:08.844Z,10.20
2023-04-16T08:36:37.973Z,10.30
2023-04-16T08:39:07.192Z,10.30
2023-04-16T08:41:37.797Z,10.40
2023-04-16T08:44:09.892Z,10.40
2023-04-16T08:46:42.054Z,10.40
2023-04-16T08:49:18.872Z,10.50
2023-04-16T08:51:52.394Z,10.60
2023-04-16T08:54:40.252Z,10.80
2023-04-16T08:57:11.868Z,10.80
2023-04-16T08:59:41.309Z,10.90
2023-04-16T09:02:13.965Z,10.90
2023-04-16T09:04:43.832Z,11.00
2023-04-16T09:07:12.563Z,11.10
2023-04-16T09:09:45.034Z,11.20
2023-04-16T09:12:13.410Z,11.30
2023-04-16T09:14:43.200Z,11.30
2023-04-16T09:17:12.060Z,11.30
2023-04-16T09:19:40.090Z,11.30
2023-04-16T09:22:09.651Z,11.30
2023-04-16T09:24:38.482Z,11.20
2023-04-16T09:27:06.866Z,11.10
2023-04-16T09:29:36.937Z,11.00
2023-04-16T09:32:06.659Z,11.00
2023-04-16T09:34:35.653Z,11.00
2023-04-16T09:37:18.301Z,11.00
2023-04-16T09:39:53.314Z,11.00
2023-04-16T09:42:24.285Z,11.10
2023-04-16T09:44:52.555Z,11.20
2023-04-16T09:47:21.325Z,11.30
2023-04-16T09:49:49.773Z,11.40
2023-04-16T09:52:21.676Z,11.40
2023-04-16T09:54:51.163Z,11.50
2023-04-16T09:57:23.255Z,11.50
2023-04-16T09:59:54.738Z,11.60
2023-04-16T10:02:27.700Z,11.60
2023-04-16T10:04:57.623Z,11.60
2023-04-16T10:07:30.305Z,11.50
2023-04-16T10:09:58.968Z,11.40
2023-04-16T10:12:27.183Z,11.40
2023-04-16T10:14:55.226Z,11.40
2023-04-16T10:17:24.003Z,11.40
2023-04-16T10:19:52.591Z,11.50
2023-04-16T10:22:20.592Z,11.50
2023-04-16T10:24:50.947Z,11.50
2023-04-16T10:27:20.508Z,11.60
2023-04-16T10:29:50.005Z,11.60
2023-04-16T10:32:20.740Z,11.70
2023-04-16T10:34:49.326Z,11.60
2023-04-16T10:37:18.972Z,11.60
2023-04-16T10:39:47.220Z,11.50
2023-04-16T10:42:17.057Z,11.40
2023-04-16T10:44:47.217Z,11.30
2023-04-16T10:47:15.701Z,11.30
2023-04-16T10:49:43.847Z,11.20
2023-04-16T10:52:14.943Z,11.10
2023-04-16T10:54:43.126Z,11.10
2023-04-16T10:57:16.269Z,11.00
2023-04-16T10:59:46.644Z,11.00
2023-04-16T11:02:16.342Z,11.00
2023-04-16T11:04:46.445Z,10.90
2023-04-16T11:07:19.119Z,10.90
2023-04-16T11:09:57.683Z,10.80
2023-04-16T11:12:29.025Z,10.90
2023-04-16T11:15:01.768Z,10.90
2023-04-16T11:17:34.188Z,10.90
2023-04-16T11:20:02.368Z,10.90
2023-04-16T11:22:31.642Z,10.90
2023-04-16T11:24:59.743Z,11.00
2023-04-16T11:27:27.856Z,11.00
2023-04-16T11:30:02.038Z,11.00
2023-04-16T11:32:33.049Z,11.00
2023-04-16T11:35:03.637Z,11.00
2023-04-16T11:37:36.667Z,11.00
2023-04-16T11:40:06.788Z,11.00
2023-04-16T11:42:37.462Z,11.00
2023-04-16T11:45:08.879Z,11.00
2023-04-16T11:47:45.682Z,11.00
2023-04-16T11:50:23.749Z,11.00
2023-04-16T11:52:53.590Z,11.00
2023-04-16T11:55:22.032Z,11.00
2023-04-16T11:57:53.108Z,11.00
2023-04-16T12:00:24.909Z,11.10
2023-04-16T12:02:54.671Z,11.20
2023-04-16T12:05:33.754Z,11.20
2023-04-16T12:08:03.301Z,11.30
2023-04-16T12:10:34.860Z,11.40
2023-04-16T12:13:17.689Z,11.50
2023-04-16T12:15:48.423Z,11.50
2023-04-16T12:18:16.937Z,11.60
2023-04-16T12:20:45.874Z,11.60
2023-04-16T12:23:24.735Z,11.70
2023-04-16T12:25:53.073Z,11.70
2023-04-16T12:28:31.668Z,11.70
2023-04-16T12:31:02.045Z,11.60
2023-04-16T12:33:30.474Z,11.60
2023-04-16T12:35:58.813Z,11.50
2023-04-16T12:38:27.689Z,11.50
2023-04-16T12:40:57.319Z,11.40
2023-04-16T12:43:26.339Z,11.50
2023-04-16T12:45:54.426Z,11.50
2023-04-16T12:48:23.948Z,11.50
2023-04-16T12:50:55.074Z,11.60
2023-04-16T12:53:25.107Z,11.60
2023-04-16T12:55:53.453Z,11.50
2023-04-16T12:58:21.395Z,11.50
2023-04-16T13:00:49.552Z,11.50
2023-04-16T13:03:17.943Z,11.60
2023-04-16T13:05:47.550Z,11.60
2023-04-16T13:08:15.549Z,11.60
2023-04-16T13:10:43.879Z,11.60
2023-04-16T13:13:11.865Z,11.60
2023-04-16T13:15:39.952Z,11.60
2023-04-16T13:18:07.909Z,11.60
2023-04-16T13:20:35.989Z,11.60
2023-04-16T13:23:05.555Z,11.70
2023-04-16T13:25:33.896Z,11.70
2023-04-16T13:28:01.931Z,11.70
2023-04-16T13:30:30.504Z,11.80
2023-04-16T13:32:59.648Z,11.80
2023-04-16T13:35:28.078Z,11.90
2023-04-16T13:37:56.157Z,12.00
2023-04-16T13:40:28.762Z,12.00
2023-04-16T13:42:56.758Z,12.00
2023-04-16T13:45:24.854Z,12.10
2023-04-16T13:47:52.909Z,12.10
2023-04-16T13:50:21.275Z,12.10
2023-04-16T13:52:49.308Z,12.10
2023-04-16T13:55:19.190Z,12.20
2023-04-16T13:57:49.686Z,12.20
2023-04-16T14:00:18.894Z,12.20
2023-04-16T14:02:48.821Z,12.20
2023-04-16T14:05:17.192Z,12.20
2023-04-16T14:07:45.562Z,12.30
2023-04-16T14:10:13.979Z,12.30
2023-04-16T14:12:42.074Z,12.30
2023-04-16T14:15:14.574Z,12.40
2023-04-16T14:17:44.113Z,12.30
2023-04-16T14:20:14.161Z,12.40
2023-04-16T14:22:43.891Z,12.40
2023-04-16T14:25:14.370Z,12.40
2023-04-16T14:27:42.605Z,12.50
2023-04-16T14:30:12.678Z,12.50
2023-04-16T14:32:40.919Z,12.60
2023-04-16T14:35:10.430Z,12.70
2023-04-16T14:37:38.941Z,12.80
2023-04-16T14:40:08.997Z,12.90
2023-04-16T14:42:37.818Z,12.90
2023-04-16T14:45:06.938Z,13.00
2023-04-16T14:47:37.800Z,13.00
2023-04-16T14:50:07.068Z,13.00
2023-04-16T14:52:35.096Z,13.10
2023-04-16T14:55:03.111Z,13.10
2023-04-16T14:57:31.537Z,13.10
2023-04-16T14:59:59.744Z,13.10
2023-04-16T15:02:28.805Z,13.20
2023-04-16T15:04:58.378Z,13.30
2023-04-16T15:07:27.670Z,13.30
2023-04-16T15:09:55.850Z,13.30
2023-04-16T15:12:24.121Z,13.40
2023-04-16T15:14:52.262Z,13.50
2023-04-16T15:17:21.829Z,13.50
2023-04-16T15:19:52.060Z,13.50
2023-04-16T15:22:21.611Z,13.60
2023-04-16T15:24:49.812Z,13.60
2023-04-16T15:27:19.322Z,13.60
2023-04-16T15:29:49.439Z,13.50
2023-04-16T15:32:17.571Z,13.50
2023-04-16T15:34:46.608Z,13.50
2023-04-16T15:37:14.720Z,13.50
2023-04-16T15:39:44.555Z,13.50
2023-04-16T15:42:13.260Z,13.50
2023-04-16T15:44:41.596Z,13.50
2023-04-16T15:47:09.738Z,13.40
2023-04-16T15:49:37.732Z,13.40
2023-04-16T15:52:06.445Z,13.40
2023-04-16T15:54:34.545Z,13.30
2023-04-16T15:57:04.228Z,13.30
2023-04-16T15:59:35.940Z,13.30
2023-04-16T16:02:04.175Z,13.30
2023-04-16T16:04:32.398Z,13.30
2023-04-16T16:07:02.531Z,13.20
2023-04-16T16:09:30.939Z,13.20
2023-04-16T16:11:59.825Z,13.10
2023-04-16T16:14:29.287Z,13.10
2023-04-16T16:16:57.660Z,13.10
2023-04-16T16:19:25.828Z,13.10
2023-04-16T16:21:54.202Z,13.10
2023-04-16T16:24:22.289Z,13.10
2023-04-16T16:26:50.352Z,13.10
2023-04-16T16:29:18.470Z,13.00
2023-04-16T16:31:48.079Z,13.10
2023-04-16T16:34:20.857Z,13.00
2023-04-16T16:36:49.762Z,13.00
2023-04-16T16:39:17.786Z,13.00
2023-04-16T16:41:47.543Z,12.90
2023-04-16T16:44:15.670Z,12.90
2023-04-16T16:46:44.472Z,12.90
2023-04-16T16:49:13.913Z,12.80
2023-04-16T16:51:41.958Z,12.80
2023-04-16T16:54:09.999Z,12.80
2023-04-16T16:56:38.100Z,12.70
2023-04-16T16:59:06.224Z,12.70
2023-04-16T17:01:34.583Z,12.60
2023-04-16T17:04:08.999Z,12.60
2023-04-16T17:06:39.218Z,12.50
2023-04-16T17:09:07.935Z,12.50
2023-04-16T17:11:36.253Z,12.50
2023-04-16T17:14:04.365Z,12.50
2023-04-16T17:16:32.565Z,12.50
2023-04-16T17:19:01.315Z,12.40
2023-04-16T17:21:29.374Z,12.40
2023-04-16T17:23:59.252Z,12.40
2023-04-16T17:26:28.251Z,12.40
2023-04-16T17:28:58.422Z,12.40
2023-04-16T17:31:27.317Z,12.40
2023-04-16T17:33:55.423Z,12.40
2023-04-16T17:36:23.890Z,12.40
2023-04-16T17:38:51.908Z,12.30
2023-04-16T17:41:21.452Z,12.30
2023-04-16T17:43:49.727Z,12.30
2023-04-16T17:46:18.157Z,12.30
2023-04-16T17:48:47.915Z,12.20
2023-04-16T17:51:16.618Z,12.20
2023-04-16T17:53:44.802Z,12.10
2023-04-16T17:56:13.407Z,12.10
2023-04-16T17:58:42.944Z,12.10
2023-04-16T18:01:11.157Z,12.10
2023-04-16T18:03:40.587Z,12.00
2023-04-16T18:06:08.949Z,12.00
2023-04-16T18:08:37.039Z,12.00
2023-04-16T18:11:08.111Z,11.90
2023-04-16T18:13:36.154Z,11.90
2023-04-16T18:16:07.580Z,11.90
2023-04-16T18:18:35.832Z,11.80
2023-04-16T18:21:04.059Z,11.80
2023-04-16T18:23:32.261Z,11.80
2023-04-16T18:26:00.625Z,11.70
2023-04-16T18:28:28.840Z,11.70
2023-04-16T18:30:59.037Z,11.70
2023-04-16T18:33:52.401Z,11.60
2023-04-16T18:36:17.027Z,11.60
2023-04-16T18:38:59.396Z,11.60
2023-04-16T18:41:28.941Z,11.50
2023-04-16T18:43:57.082Z,11.50
2023-04-16T18:46:25.343Z,11.50
2023-04-16T18:48:55.099Z,11.40
2023-04-16T18:51:23.307Z,11.40
2023-04-16T18:53:51.603Z,11.40
2023-04-16T18:56:19.771Z,11.30
2023-04-16T18:58:48.017Z,11.30
2023-04-16T19:01:16.548Z,11.30
2023-04-16T19:03:45.489Z,11.30
2023-04-16T19:06:15.297Z,11.30
2023-04-16T19:08:43.444Z,11.20
2023-04-16T19:11:11.574Z,11.20
2023-04-16T19:13:39.867Z,11.20
2023-04-16T19:16:11.395Z,11.20
2023-04-16T19:18:40.004Z,11.20
2023-04-16T19:21:10.004Z,11.20
2023-04-16T19:23:39.411Z,11.10
2023-04-16T19:26:07.472Z,11.10
2023-04-16T19:28:35.647Z,11.10
2023-04-16T19:31:03.763Z,11.10
2023-04-16T19:33:32.363Z,11.10
2023-04-16T19:36:01.704Z,11.10
2023-04-16T19:38:31.767Z,11.00
2023-04-16T19:41:01.275Z,11.00
2023-04-16T19:43:31.162Z,11.00
2023-04-16T19:45:59.432Z,11.00
2023-04-16T19:48:27.728Z,11.00
2023-04-16T19:50:55.870Z,11.00
2023-04-16T19:53:24.451Z,11.00
2023-04-16T19:55:52.471Z,11.00
2023-04-16T19:58:21.890Z,11.00
2023-04-16T20:00:49.916Z,11.00
2023-04-16T20:03:18.084Z,11.00
2023-04-16T20:05:49.180Z,11.00
2023-04-16T20:08:17.338Z,10.90
2023-04-16T20:10:45.455Z,10.90
2023-04-16T20:13:13.735Z,10.90
2023-04-16T20:15:43.374Z,10.90
2023-04-16T20:18:12.761Z,10.90
2023-04-16T20:20:41.466Z,10.90
2023-04-16T20:23:09.596Z,10.90
2023-04-16T20:25:42.150Z,10.80
2023-04-16T20:28:10.202Z,10.80
2023-04-16T20:30:39.626Z,10.80
2023-04-16T20:33:09.563Z,10.80
2023-04-16T20:35:37.970Z,10.80
2023-04-16T20:38:06.109Z,10.80
2023-04-16T20:40:38.146Z,10.80
2023-04-16T20:43:09.953Z,10.70
2023-04-16T20:45:42.264Z,10.70
2023-04-16T20:48:12.385Z,10.70
2023-04-16T20:50:40.664Z,10.70
2023-04-16T20:53:08.693Z,10.70
2023-04-16T20:55:36.732Z,10.60
2023-04-16T20:58:04.804Z,10.60
2023-04-16T21:00:32.980Z,10.60
2023-04-16T21:03:01.205Z,10.60
2023-04-16T21:05:30.939Z,10.60
2023-04-16T21:07:59.008Z,10.60
2023-04-16T21:10:27.022Z,10.50
2023-04-16T21:12:55.154Z,10.50
2023-04-16T21:15:23.198Z,10.50
2023-04-16T21:17:51.259Z,10.50
2023-04-16T21:20:19.530Z,10.50
2023-04-16T21:22:50.372Z,10.50
2023-04-16T21:25:18.508Z,10.40
2023-04-16T21:27:46.471Z,10.40
2023-04-16T21:30:15.574Z,10.30
2023-04-16T21:32:43.818Z,10.30
2023-04-16T21:35:12.139Z,10.30
2023-04-16T21:37:40.241Z,10.30
2023-04-16T21:40:10.293Z,10.20
2023-04-16T21:42:39.872Z,10.20
2023-04-16T21:45:09.434Z,10.20
2023-04-16T21:47:37.561Z,10.10
2023-04-16T21:50:06.306Z,10.10
2023-04-16T21:52:40.143Z,10.10
2023-04-16T21:55:10.795Z,10.00
2023-04-16T21:57:38.868Z,10.00
2023-04-16T22:00:12.428Z,10.00
2023-04-16T22:02:41.675Z,10.00
2023-04-16T22:05:11.291Z,10.00
2023-04-16T22:07:39.392Z,9.90
2023-04-16T22:10:11.349Z,9.90
2023-04-16T22:12:40.326Z,9.90
2023-04-16T22:15:10.271Z,9.80
2023-04-16T22:17:38.695Z,9.80
2023-04-16T22:20:09.079Z,9.80
2023-04-16T22:22:37.166Z,9.80
2023-04-16T22:25:05.898Z,9.80
2023-04-16T22:27:35.482Z,9.70
2023-04-16T22:30:04.122Z,9.70
2023-04-16T22:32:33.119Z,9.70
2023-04-16T22:35:01.431Z,9.70
2023-04-16T22:37:29.466Z,9.60
2023-04-16T22:39:57.489Z,9.60
2023-04-16T22:42:25.492Z,9.60
2023-04-16T22:44:54.855Z,9.60
2023-04-16T22:47:22.844Z,9.50
2023-04-16T22:49:50.855Z,9.50
2023-04-16T22:52:18.834Z,9.50
2023-04-16T22:54:46.852Z,9.50
2023-04-16T22:57:15.314Z,9.50
2023-04-16T22:59:43.270Z,9.50
2023-04-16T23:02:12.760Z,9.40
2023-04-16T23:04:40.809Z,9.40
2023-04-16T23:07:08.874Z,9.40
2023-04-16T23:09:36.817Z,9.40
2023-04-16T23:12:05.538Z,9.40
2023-04-16T23:14:33.939Z,9.40
2023-04-16T23:17:02.467Z,9.40
2023-04-16T23:19:32.155Z,9.40
2023-04-16T23:22:00.109Z,9.30
2023-04-16T23:24:28.083Z,9.30
2023-04-16T23:26:56.190Z,9.30
2023-04-16T23:29:24.186Z,9.30
2023-04-16T23:31:52.197Z,9.30
2023-04-16T23:34:20.278Z,9.30
2023-04-16T23:36:49.633Z,9.20
2023-04-16T23:39:17.819Z,9.20
2023-04-16T23:41:46.062Z,9.20
2023-04-16T23:44:14.069Z,9.20
2023-04-16T23:46:42.087Z,9.20
2023-04-16T23:49:10.298Z,9.20
2023-04-16T23:51:38.596Z,9.20
2023-04-16T23:54:07.999Z,9.20
2023-04-16T23:56:35.957Z,9.20
2023-04-16T23:59:03.943Z,9.20
